Time;durP1;ratioP1;P1;durP2;ratioP2;P2;SDS_P1;SDS_P2;PMS_P1;PMS_P2;Temp;Humidity;BMP_temperature;BMP_pressure;BME280_temperature;BME280_humidity;BME280_pressure;Samples;Min_cycle;Max_cycle;Signal;HPM_P1;HPM_P2
2022/02/04 00:24:08;;;;;;;121.60;65.18;;;77.60;2227.20;;;;;;4950617;29;20438;-55
2022/02/04 00:26:44;;;;;;;112.97;61.70;;;77.60;2227.20;;;;;;4945803;29;20405;-55
2022/02/04 00:29:27;;;;;;;97.38;53.03;;;77.60;2227.20;;;;;;4950738;29;20067;-56
2022/02/04 00:31:57;;;;;;;48.47;26.70;;;77.50;2227.20;;;;;;4933731;29;20030;-55
2022/02/04 00:34:25;;;;;;;81.10;43.92;;;77.40;2227.20;;;;;;4950557;29;20055;-55
2022/02/04 00:39:31;;;;;;;257.75;138.65;;;77.30;2227.20;;;;;;4951114;29;20029;-55
2022/02/04 00:42:06;;;;;;;202.75;110.07;;;77.10;2227.20;;;;;;4950582;29;20031;-54
2022/02/04 00:44:32;;;;;;;192.65;107.88;;;77.20;2227.20;;;;;;4950586;29;20461;-55
2022/02/04 00:47:12;;;;;;;232.80;128.38;;;77.20;2227.20;;;;;;4951176;29;20054;-55
2022/02/04 00:52:27;;;;;;;242.70;131.27;;;76.90;2227.20;;;;;;4951060;29;20023;-55
2022/02/04 00:57:46;;;;;;;217.55;122.57;;;77.20;2227.20;;;;;;4950899;29;20039;-54
2022/02/04 01:27:29;;;;;;;162.07;93.45;;;52.10;2227.20;;;;;;4954116;29;20102;-55
2022/02/04 01:30:18;;;;;;;156.68;85.15;;;52.10;2227.20;;;;;;4954064;29;20020;-55
2022/02/04 01:32:44;;;;;;;165.13;90.97;;;52.10;2227.20;;;;;;4953893;29;20122;-55
2022/02/04 01:35:10;;;;;;;139.65;79.97;;;52.10;2227.20;;;;;;4953532;29;20085;-55
2022/02/04 01:37:36;;;;;;;134.45;78.60;;;52.10;2227.20;;;;;;4954130;29;20074;-55
2022/02/04 01:40:02;;;;;;;151.15;86.18;;;52.00;2227.20;;;;;;4953897;29;20521;-55
2022/02/04 01:42:28;;;;;;;167.70;96.43;;;52.10;2227.20;;;;;;4953590;29;20039;-55
2022/02/04 01:44:54;;;;;;;189.57;109.40;;;52.10;2227.20;;;;;;4953686;29;20525;-54
2022/02/04 01:47:19;;;;;;;186.55;106.90;;;52.00;2227.20;;;;;;4953408;29;20434;-55
2022/02/04 01:49:45;;;;;;;115.90;66.03;;;52.10;2227.20;;;;;;4953973;29;20046;-54
2022/02/04 01:52:12;;;;;;;136.95;78.90;;;52.00;2227.20;;;;;;4953624;29;20112;-56
2022/02/04 01:54:38;;;;;;;84.15;46.97;;;51.90;2227.20;;;;;;4953663;29;20246;-56
2022/02/04 01:57:04;;;;;;;67.65;37.03;;;51.80;2227.20;;;;;;4953222;29;20042;-55
2022/02/04 01:59:30;;;;;;;55.22;33.47;;;51.70;2227.20;;;;;;4953237;29;20028;-55
2022/02/04 02:01:56;;;;;;;43.78;24.45;;;51.80;2227.20;;;;;;4953531;29;20466;-54
2022/02/04 02:04:22;;;;;;;55.20;29.30;;;51.90;2227.20;;;;;;4953107;29;20030;-54
2022/02/04 02:07:01;;;;;;;42.95;25.55;;;51.90;2227.20;;;;;;4953423;29;20046;-54
2022/02/04 02:09:36;;;;;;;34.63;19.92;;;51.80;2227.20;;;;;;4953490;29;20469;-54
2022/02/04 02:12:06;;;;;;;44.47;25.02;;;51.80;2227.20;;;;;;4953220;29;20090;-54
2022/02/04 02:14:33;;;;;;;30.48;18.20;;;51.80;2227.20;;;;;;4952551;29;20038;-54
2022/02/04 02:49:28;;;;;;;56.30;33.03;;;51.60;2227.20;;;;;;4952558;29;20079;-55
2022/02/04 02:52:04;;;;;;;47.45;28.17;;;51.60;2227.20;;;;;;4951893;29;20752;-55
2022/02/04 03:00:26;;;;;;;53.72;26.23;;;51.60;2227.20;;;;;;4912223;29;20112;-54
2022/02/04 03:02:56;;;;;;;49.75;29.17;;;51.60;2227.20;;;;;;4911831;29;20036;-55
2022/02/04 03:05:22;;;;;;;41.17;23.90;;;51.60;2227.20;;;;;;4911642;29;20063;-55
2022/02/04 03:07:48;;;;;;;43.10;23.45;;;51.60;2227.20;;;;;;4911792;29;20131;-54
2022/02/04 03:10:13;;;;;;;30.10;19.15;;;51.70;2227.20;;;;;;4911995;29;20042;-54
2022/02/04 03:12:42;;;;;;;35.13;21.13;;;51.80;2227.20;;;;;;4912084;29;20047;-55
2022/02/04 03:15:08;;;;;;;43.78;24.02;;;51.80;2227.20;;;;;;4911972;29;20545;-55
2022/02/04 03:17:35;;;;;;;43.10;24.98;;;51.90;2227.20;;;;;;4911684;29;20047;-55
2022/02/04 03:20:06;;;;;;;42.13;25.35;;;51.80;2227.20;;;;;;4911650;29;20107;-55
2022/02/04 03:22:31;;;;;;;40.75;22.33;;;51.70;2227.20;;;;;;4911313;29;20120;-55
2022/02/04 03:25:01;;;;;;;36.67;23.00;;;51.70;2227.20;;;;;;4911896;29;20471;-55
2022/02/04 03:27:34;;;;;;;37.55;21.48;;;51.90;2227.20;;;;;;4911649;29;20444;-55
2022/02/04 03:30:14;;;;;;;35.00;20.40;;;51.90;2227.20;;;;;;4911199;29;20032;-55
2022/02/04 03:32:44;;;;;;;52.28;27.15;;;51.90;2227.20;;;;;;4911292;29;20039;-55
2022/02/04 03:35:10;;;;;;;44.55;24.05;;;51.80;2227.20;;;;;;4948069;29;20047;-55
2022/02/04 03:37:36;;;;;;;40.15;21.00;;;51.90;2227.20;;;;;;4951391;29;20103;-54
2022/02/04 03:40:02;;;;;;;47.85;29.13;;;51.90;2227.20;;;;;;4951435;29;20055;-54
2022/02/04 03:42:29;;;;;;;57.78;33.28;;;52.00;2227.20;;;;;;4951452;29;20051;-55
2022/02/04 03:44:55;;;;;;;76.13;37.70;;;51.90;2227.20;;;;;;4950606;28;20095;-54
2022/02/04 03:47:20;;;;;;;53.78;27.10;;;52.00;2227.20;;;;;;4950907;29;20023;-54
2022/02/04 03:49:46;;;;;;;28.45;16.20;;;52.00;2227.20;;;;;;4951593;29;20104;-54
2022/02/04 03:52:12;;;;;;;28.25;17.38;;;52.00;2227.20;;;;;;4951562;29;20023;-54
2022/02/04 03:54:37;;;;;;;31.63;15.05;;;52.00;2227.20;;;;;;4951445;29;20066;-54
2022/02/04 03:57:03;;;;;;;22.73;12.90;;;51.90;2227.20;;;;;;4951095;29;20528;-54
2022/02/04 03:59:29;;;;;;;22.17;11.23;;;51.90;2227.20;;;;;;4951073;29;20027;-54
2022/02/04 04:01:55;;;;;;;17.42;11.07;;;52.00;2227.20;;;;;;4951042;29;20119;-55
2022/02/04 04:04:25;;;;;;;17.92;11.32;;;51.90;2227.20;;;;;;4950976;29;20035;-54
2022/02/04 04:06:51;;;;;;;52.92;31.30;;;52.10;2227.20;;;;;;4950730;29;20027;-55
2022/02/04 04:09:16;;;;;;;47.28;27.52;;;52.10;2227.20;;;;;;4951282;29;20487;-54
2022/02/04 04:11:46;;;;;;;33.53;19.20;;;52.10;2227.20;;;;;;4951213;29;20038;-55
2022/02/04 04:14:13;;;;;;;33.97;20.85;;;76.80;2227.20;;;;;;4951122;29;20031;-55
2022/02/04 04:16:41;;;;;;;55.45;32.38;;;76.80;2227.20;;;;;;4950858;29;20439;-55
2022/02/04 04:19:07;;;;;;;154.27;83.53;;;52.10;2227.20;;;;;;4951058;29;20038;-55
2022/02/04 04:21:38;;;;;;;114.57;67.00;;;52.00;2227.20;;;;;;4950854;29;20035;-55
2022/02/04 04:24:04;;;;;;;109.65;61.63;;;52.10;2227.20;;;;;;4950662;29;20050;-54
2022/02/04 04:26:30;;;;;;;90.93;54.40;;;52.10;2227.20;;;;;;4950849;29;20462;-55
2022/02/04 04:28:55;;;;;;;73.00;39.65;;;76.80;2227.20;;;;;;4951097;29;20039;-54
2022/02/04 04:31:21;;;;;;;130.95;72.82;;;52.10;2227.20;;;;;;4950785;29;20536;-54
2022/02/04 04:33:47;;;;;;;195.88;104.28;;;52.10;2227.20;;;;;;4950909;29;20035;-55
2022/02/04 04:36:13;;;;;;;157.60;87.05;;;52.10;2227.20;;;;;;4950777;29;20458;-55
2022/02/04 04:38:46;;;;;;;202.90;114.70;;;52.10;2227.20;;;;;;4951000;29;20040;-55
2022/02/04 05:30:35;;;;;;;76.72;47.03;;;52.10;2227.20;;;;;;4951416;29;20577;-55
2022/02/04 05:33:00;;;;;;;49.53;31.55;;;52.10;2227.20;;;;;;4951827;29;20118;-56
2022/02/04 05:35:26;;;;;;;39.58;23.30;;;52.10;2227.20;;;;;;4951533;29;20047;-56
2022/02/04 05:37:52;;;;;;;57.40;32.30;;;52.00;2227.20;;;;;;4951660;29;20509;-56
2022/02/04 05:40:21;;;;;;;64.03;34.92;;;51.90;2227.20;;;;;;4935071;29;20087;-55
2022/02/04 05:42:59;;;;;;;82.65;51.20;;;51.90;2227.20;;;;;;4932586;29;20565;-55
2022/02/04 05:45:29;;;;;;;58.35;30.25;;;51.90;2227.20;;;;;;4934765;29;20486;-55
2022/02/04 05:47:59;;;;;;;40.85;21.95;;;51.90;2227.20;;;;;;4948261;29;20118;-55
2022/02/04 05:53:36;;;;;;;154.13;93.15;;;51.80;2227.20;;;;;;4932221;29;20087;-56
2022/02/04 05:56:26;;;;;;;182.57;110.88;;;51.70;2227.20;;;;;;4931943;29;20059;-55
2022/02/04 06:14:44;;;;;;;166.25;92.43;;;51.80;2227.20;;;;;;4879936;29;20044;-54
2022/02/04 06:22:42;;;;;;;140.40;77.40;;;51.80;2227.20;;;;;;4876683;29;20135;-55
2022/02/04 06:25:08;;;;;;;121.03;73.97;;;51.90;2227.20;;;;;;4876263;29;20149;-55
2022/02/04 06:27:35;;;;;;;75.28;42.85;;;51.90;2227.20;;;;;;4865678;29;20069;-54
2022/02/04 06:30:02;;;;;;;229.75;125.65;;;51.80;2227.20;;;;;;4857063;29;20030;-55
2022/02/04 06:32:27;;;;;;;236.38;138.68;;;51.80;2227.20;;;;;;4857647;29;20048;-54
2022/02/04 06:34:53;;;;;;;179.35;102.72;;;51.80;2227.20;;;;;;4857220;29;20053;-55
2022/02/04 06:37:19;;;;;;;333.75;199.07;;;51.80;2227.20;;;;;;4857450;29;20045;-55
2022/02/04 06:39:45;;;;;;;210.43;123.00;;;51.90;2227.20;;;;;;4857552;29;20559;-55
2022/02/04 06:42:18;;;;;;;89.47;53.08;;;51.90;2227.20;;;;;;4857346;29;20044;-55
2022/02/04 06:44:44;;;;;;;69.30;42.70;;;51.90;2227.20;;;;;;4872287;29;20059;-54
2022/02/04 06:47:10;;;;;;;109.70;61.67;;;51.90;2227.20;;;;;;4856960;29;20412;-55
2022/02/04 06:49:35;;;;;;;246.63;140.75;;;51.90;2227.20;;;;;;4857305;29;20109;-56
2022/02/04 06:52:03;;;;;;;236.07;132.95;;;52.00;2227.20;;;;;;4911903;29;20612;-56
2022/02/04 06:54:30;;;;;;;177.20;104.65;;;52.00;2227.20;;;;;;4945886;28;20035;-57
2022/02/04 06:56:56;;;;;;;232.38;132.32;;;52.10;2227.20;;;;;;4957994;28;20045;-59
2022/02/04 06:59:22;;;;;;;261.20;139.93;;;52.00;2227.20;;;;;;4961468;28;20030;-55
2022/02/04 07:01:48;;;;;;;97.47;60.75;;;52.00;2227.20;;;;;;4967093;28;20059;-59
2022/02/04 07:04:14;;;;;;;73.85;46.72;;;52.10;2227.20;;;;;;4968779;28;20038;-54
2022/02/04 07:06:44;;;;;;;145.60;85.45;;;52.10;2227.20;;;;;;4960279;28;20054;-54
2022/02/04 07:21:52;;;;;;;125.93;75.00;;;77.10;2227.20;;;;;;4972178;28;20073;-59
2022/02/04 07:24:17;;;;;;;167.80;101.50;;;77.00;2227.20;;;;;;4972536;28;20027;-56
2022/02/04 07:26:43;;;;;;;178.63;114.65;;;77.10;2227.20;;;;;;4972242;28;20125;-58
2022/02/04 07:29:09;;;;;;;186.45;111.47;;;77.20;2227.20;;;;;;4972141;28;20421;-59
2022/02/04 07:31:38;;;;;;;149.73;84.47;;;77.30;2227.20;;;;;;4971883;28;20026;-59
2022/02/04 07:34:40;;;;;;;180.85;110.05;;;77.40;2227.20;;;;;;4971483;28;20035;-58
2022/02/04 07:42:20;;;;;;;175.95;113.43;;;102.40;2227.20;;;;;;4930872;29;20501;-58
2022/02/04 07:44:46;;;;;;;151.40;91.95;;;102.40;2227.20;;;;;;4931393;29;20032;-56
2022/02/04 07:47:12;;;;;;;114.97;69.72;;;102.50;2227.20;;;;;;4931302;29;20107;-58
2022/02/04 07:49:37;;;;;;;152.25;91.10;;;102.50;2227.20;;;;;;4931320;29;20034;-58
2022/02/04 07:52:03;;;;;;;166.15;98.50;;;102.50;2227.20;;;;;;4931149;29;20168;-58
2022/02/04 07:54:29;;;;;;;145.90;89.20;;;102.50;2227.20;;;;;;4931222;29;20032;-58
2022/02/04 07:56:56;;;;;;;154.15;97.43;;;102.90;2227.20;;;;;;4931191;29;20074;-59
2022/02/04 07:59:22;;;;;;;163.95;105.57;;;128.90;2252.80;;;;;;4930885;29;20502;-55
2022/02/04 08:01:48;;;;;;;221.70;139.38;;;153.80;2252.80;;;;;;4931335;29;20055;-59
2022/02/04 08:06:45;;;;;;;200.80;124.80;;;179.20;2201.60;;;;;;4930558;29;20094;-57
2022/02/04 08:20:35;;;;;;;87.90;63.85;;;359.00;1433.60;;;;;;4930792;29;20072;-57
2022/02/04 08:35:29;;;;;;;221.93;185.57;;;461.00;1254.40;;;;;;4930379;29;20098;-59
2022/02/04 08:56:41;;;;;;;97.43;82.15;;;537.60;1049.60;;;;;;4882426;29;20052;-56
2022/02/04 08:59:14;;;;;;;100.65;89.47;;;512.10;1024.00;;;;;;4880614;29;20104;-59
2022/02/04 09:01:47;;;;;;;120.38;103.55;;;512.40;1024.00;;;;;;4881788;29;20035;-56
2022/02/04 09:04:17;;;;;;;;;;;512.60;998.40;;;;;;4882933;29;20553;-56
2022/02/04 09:06:50;;;;;;;117.60;103.60;;;537.90;998.40;;;;;;4868846;29;19987;-58
2022/02/04 09:09:29;;;;;;;120.78;105.57;;;538.40;972.80;;;;;;4883838;29;20101;-56
2022/02/04 09:12:08;;;;;;;122.88;109.15;;;538.50;972.80;;;;;;4882675;29;20115;-56
2022/02/04 09:18:27;;;;;;;117.90;104.18;;;537.80;972.80;;;;;;4883481;29;20091;-56
2022/02/04 09:20:24;;;;;;;122.65;109.28;;;538.10;972.80;;;;;;4882748;29;20124;-57
2022/02/04 09:22:50;;;;;;;127.88;113.82;;;538.10;972.80;;;;;;4882917;29;20238;-56
2022/02/04 09:29:03;;;;;;;112.80;100.60;;;563.80;947.20;;;;;;5004005;23;20112;-57
2022/02/04 09:31:29;;;;;;;111.45;99.45;;;564.00;921.60;;;;;;4989760;28;20023;-57
2022/02/04 09:33:54;;;;;;;118.32;105.95;;;564.10;947.20;;;;;;4988286;28;20459;-57
2022/02/04 09:36:20;;;;;;;124.38;111.47;;;538.40;947.20;;;;;;4988064;28;20034;-57
2022/02/04 09:38:46;;;;;;;150.43;106.05;;;538.00;972.80;;;;;;4988071;28;20030;-58
2022/02/04 09:41:17;;;;;;;150.85;134.32;;;512.00;998.40;;;;;;4987763;28;20025;-58
2022/02/04 09:43:43;;;;;;;163.07;145.18;;;487.30;1024.00;;;;;;4989015;28;20018;-57
2022/02/04 09:46:09;;;;;;;222.25;195.35;;;486.90;1049.60;;;;;;4991787;28;20420;-57
2022/02/04 09:48:34;;;;;;;147.45;130.82;;;461.60;1100.80;;;;;;4991136;28;20206;-56
2022/02/04 09:51:01;;;;;;;147.77;131.48;;;436.10;1100.80;;;;;;4991622;28;20045;-56
2022/02/04 10:07:32;;;;;;;117.88;92.05;;;359.10;1280.00;;;;;;4991202;28;20026;-56
2022/02/04 10:18:08;;;;;;;116.00;93.47;;;359.30;1280.00;;;;;;4988749;28;20387;-57
2022/02/04 10:20:38;;;;;;;128.85;102.95;;;359.30;1280.00;;;;;;4990304;28;20552;-56
2022/02/04 10:23:04;;;;;;;125.95;100.93;;;359.10;1305.60;;;;;;4990791;28;20022;-56
2022/02/04 10:25:32;;;;;;;152.18;106.15;;;359.00;1305.60;;;;;;4990853;28;20054;-56
2022/02/04 10:28:04;;;;;;;187.32;138.43;;;359.10;1305.60;;;;;;4987678;28;20061;-58
2022/02/04 10:30:32;;;;;;;170.35;117.05;;;359.30;1280.00;;;;;;4990955;28;20026;-57
2022/02/04 10:32:59;;;;;;;155.77;126.15;;;384.20;1280.00;;;;;;4990403;28;20027;-57
2022/02/04 10:35:34;;;;;;;157.25;126.13;;;359.10;1331.20;;;;;;4990749;28;20528;-56
2022/02/04 10:38:22;;;;;;;151.95;115.90;;;358.80;1382.40;;;;;;4988412;28;20038;-58
2022/02/04 10:41:19;;;;;;;171.40;131.98;;;358.90;1356.80;;;;;;4988810;28;20015;-58
2022/02/04 10:46:34;;;;;;;153.95;118.53;;;358.60;1356.80;;;;;;4990752;28;20595;-56
2022/02/04 11:00:04;;;;;;;166.77;126.28;;;333.60;1459.20;;;;;;4990829;28;20462;-56
2022/02/04 11:08:25;;;;;;;193.48;139.90;;;333.70;1459.20;;;;;;4910900;29;20047;-59
2022/02/04 11:35:45;;;;;;;196.40;142.20;;;358.70;1459.20;;;;;;4893891;29;20032;-56
2022/02/04 11:52:28;;;;;;;125.88;86.45;;;333.60;1459.20;;;;;;4971941;28;20026;-56
2022/02/04 11:55:09;;;;;;;136.25;93.10;;;333.60;1484.80;;;;;;4971727;28;20025;-56
2022/02/04 11:57:49;;;;;;;122.85;83.32;;;333.70;1510.40;;;;;;4971325;28;20073;-57
2022/02/04 12:00:20;;;;;;;105.00;72.15;;;333.50;1536.00;;;;;;4971495;28;20102;-56
2022/02/04 12:02:50;;;;;;;134.70;95.15;;;333.70;1510.40;;;;;;4971168;28;20034;-58
2022/02/04 12:05:18;;;;;;;158.82;108.97;;;333.60;1536.00;;;;;;4971482;28;20066;-57
2022/02/04 12:07:55;;;;;;;83.78;57.75;;;333.40;1510.40;;;;;;4970931;28;20101;-57
2022/02/04 12:10:21;;;;;;;102.72;68.85;;;333.40;1510.40;;;;;;4971696;28;20027;-57
2022/02/04 12:12:52;;;;;;;78.22;50.30;;;333.30;1536.00;;;;;;4971348;28;20030;-58
2022/02/04 12:15:30;;;;;;;76.03;52.60;;;333.70;1484.80;;;;;;4971541;28;20042;-58
2022/02/04 12:17:56;;;;;;;76.20;53.50;;;333.50;1484.80;;;;;;4970810;28;20154;-58
2022/02/04 12:20:51;;;;;;;73.65;46.60;;;333.40;1484.80;;;;;;4971822;28;20169;-59
2022/02/04 12:23:29;;;;;;;89.07;52.85;;;333.50;1459.20;;;;;;4971281;28;20019;-57
2022/02/04 12:26:16;;;;;;;63.53;42.10;;;333.70;1484.80;;;;;;4971242;28;20404;-57
2022/02/04 12:28:55;;;;;;;49.20;33.95;;;358.40;1459.20;;;;;;4971383;28;20071;-59
2022/02/04 12:31:26;;;;;;;42.78;28.02;;;358.50;1433.60;;;;;;4971547;28;20053;-57
2022/02/04 12:33:59;;;;;;;50.70;33.80;;;358.70;1408.00;;;;;;4970498;28;20404;-57
2022/02/04 12:36:27;;;;;;;58.58;34.17;;;358.60;1408.00;;;;;;4969523;28;20489;-57
2022/02/04 12:38:58;;;;;;;34.47;26.77;;;358.60;1408.00;;;;;;4969899;28;20027;-57
2022/02/04 12:41:33;;;;;;;40.75;25.38;;;358.60;1382.40;;;;;;4969106;28;20078;-57
2022/02/04 12:44:05;;;;;;;33.10;24.10;;;358.60;1382.40;;;;;;4969694;28;20023;-58
2022/02/04 12:46:32;;;;;;;32.67;22.13;;;358.70;1356.80;;;;;;4969526;28;20042;-56
2022/02/04 12:49:01;;;;;;;46.17;31.08;;;358.70;1356.80;;;;;;4973865;28;20054;-59
2022/02/04 12:54:35;;;;;;;66.35;36.45;;;358.80;1356.80;;;;;;4987363;28;20029;-58
2022/02/04 13:07:52;;;;;;;40.20;27.10;;;358.90;1356.80;;;;;;4909803;29;20090;-56
2022/02/04 13:10:29;;;;;;;44.63;26.42;;;359.10;1356.80;;;;;;4909474;29;20390;-58
2022/02/04 13:13:03;;;;;;;50.92;33.08;;;359.00;1356.80;;;;;;4909223;29;20032;-58
2022/02/04 13:15:34;;;;;;;40.75;23.30;;;359.00;1331.20;;;;;;4909602;29;20526;-57
2022/02/04 13:18:05;;;;;;;38.58;24.20;;;359.10;1331.20;;;;;;4911036;29;20068;-58
2022/02/04 13:20:31;;;;;;;35.40;26.60;;;359.10;1356.80;;;;;;4912991;29;20028;-57
2022/02/04 13:22:59;;;;;;;40.72;26.95;;;359.20;1331.20;;;;;;4915602;29;20041;-56
2022/02/04 13:25:34;;;;;;;104.82;75.82;;;359.30;1356.80;;;;;;4914982;29;20032;-57
2022/02/04 13:28:05;;;;;;;79.55;54.13;;;359.20;1356.80;;;;;;4914685;29;20052;-58
2022/02/04 13:30:34;;;;;;;92.13;56.22;;;359.10;1356.80;;;;;;4914969;29;20037;-57
2022/02/04 13:33:01;;;;;;;73.95;51.83;;;359.20;1356.80;;;;;;4914896;29;20032;-57
2022/02/04 13:35:30;;;;;;;73.45;46.03;;;359.30;1331.20;;;;;;4914686;29;20051;-57
2022/02/04 13:38:05;;;;;;;52.33;34.58;;;359.20;1331.20;;;;;;4985586;28;20085;-57
2022/02/04 13:40:48;;;;;;;114.32;63.33;;;359.30;1331.20;;;;;;4993775;28;20484;-58
2022/02/04 13:43:30;;;;;;;105.30;61.25;;;359.10;1356.80;;;;;;4993497;28;20026;-57
2022/02/04 13:46:05;;;;;;;120.28;67.05;;;359.00;1356.80;;;;;;4993440;28;20038;-57
2022/02/04 13:48:52;;;;;;;111.90;67.75;;;359.10;1382.40;;;;;;4993521;28;20034;-58
2022/02/04 13:51:26;;;;;;;112.03;68.20;;;359.00;1408.00;;;;;;4992494;28;20039;-57
2022/02/04 13:55:03;;;;;;;101.38;61.80;;;359.10;1408.00;;;;;;4993591;28;20472;-57
2022/02/04 13:57:22;;;;;;;84.72;56.85;;;359.10;1408.00;;;;;;4982258;28;20097;-57
2022/02/04 14:00:26;;;;;;;49.47;30.58;;;359.30;1408.00;;;;;;4993194;28;20113;-57
2022/02/04 14:02:53;;;;;;;67.47;48.03;;;359.30;1408.00;;;;;;4993188;28;20033;-59
2022/02/04 14:05:33;;;;;;;87.38;61.67;;;359.30;1433.60;;;;;;4993301;28;20113;-57
2022/02/04 14:08:13;;;;;;;69.95;48.13;;;359.30;1433.60;;;;;;4993377;28;20022;-57
2022/02/04 14:10:52;;;;;;;60.60;38.20;;;359.10;1433.60;;;;;;4993188;28;20034;-57
2022/02/04 14:13:23;;;;;;;65.15;43.03;;;359.30;1408.00;;;;;;4992709;28;20019;-57
2022/02/04 14:15:54;;;;;;;71.90;43.22;;;359.10;1408.00;;;;;;4993095;28;20018;-57
2022/02/04 14:18:20;;;;;;;53.75;30.30;;;359.10;1433.60;;;;;;4993173;28;20034;-57
2022/02/04 14:20:46;;;;;;;52.08;29.05;;;359.30;1408.00;;;;;;4992785;28;20499;-58
2022/02/04 14:23:14;;;;;;;52.03;28.67;;;359.10;1408.00;;;;;;4993048;28;20034;-57
2022/02/04 14:25:50;;;;;;;139.88;91.47;;;359.20;1408.00;;;;;;4992951;28;20022;-59
2022/02/04 14:28:20;;;;;;;102.97;66.68;;;359.00;1433.60;;;;;;4992134;28;20066;-56
2022/02/04 14:30:50;;;;;;;72.70;47.42;;;359.10;1408.00;;;;;;4989239;28;20030;-57
2022/02/04 14:34:28;;;;;;;57.05;36.88;;;359.10;1408.00;;;;;;4991254;28;20034;-57
2022/02/04 14:36:32;;;;;;;46.67;28.95;;;359.10;1408.00;;;;;;4990839;28;20045;-57
2022/02/04 14:53:01;;;;;;;55.30;33.25;;;358.80;1459.20;;;;;;4990704;28;20384;-57
2022/02/04 15:00:47;;;;;;;73.30;45.95;;;358.70;1459.20;;;;;;4990772;28;20049;-57
2022/02/04 15:03:18;;;;;;;61.08;38.40;;;358.60;1484.80;;;;;;4989962;28;20080;-57
2022/02/04 15:05:59;;;;;;;95.85;60.63;;;358.60;1484.80;;;;;;4990428;28;20453;-57
2022/02/04 15:08:25;;;;;;;84.55;59.65;;;358.50;1484.80;;;;;;4990121;28;20065;-57
2022/02/04 15:10:51;;;;;;;69.43;47.13;;;358.40;1484.80;;;;;;4990588;28;20045;-57
2022/02/04 15:13:18;;;;;;;82.90;53.75;;;333.70;1484.80;;;;;;4990249;28;20023;-57
2022/02/04 15:15:44;;;;;;;77.43;52.92;;;333.70;1484.80;;;;;;4990060;28;20029;-57
2022/02/04 15:18:11;;;;;;;76.68;51.38;;;333.70;1510.40;;;;;;4990181;28;20108;-57
2022/02/04 15:20:37;;;;;;;90.35;60.67;;;333.50;1510.40;;;;;;4990050;28;20026;-57
2022/02/04 15:23:03;;;;;;;78.07;53.53;;;333.40;1561.60;;;;;;4989697;28;20037;-56
2022/02/04 15:25:29;;;;;;;95.93;64.68;;;333.30;1536.00;;;;;;4990308;28;20021;-56
2022/02/04 15:30:26;;;;;;;106.38;70.18;;;333.10;1587.20;;;;;;4990079;28;20014;-57
2022/02/04 15:32:54;;;;;;;106.28;79.30;;;333.10;1587.20;;;;;;4990100;28;20025;-57
2022/02/04 15:35:20;;;;;;;88.78;64.25;;;333.10;1587.20;;;;;;4989736;28;20023;-57
2022/02/04 15:37:46;;;;;;;100.38;76.63;;;333.00;1587.20;;;;;;4989674;28;20049;-57
2022/02/04 15:40:12;;;;;;;135.93;94.00;;;332.90;1612.80;;;;;;4989899;28;20105;-57
2022/02/04 15:42:43;;;;;;;154.63;104.57;;;332.80;1638.40;;;;;;4989233;28;20027;-57
2022/02/04 15:58:31;;;;;;;146.63;106.72;;;307.70;1612.80;;;;;;4989191;28;20488;-56
2022/02/04 16:03:59;;;;;;;122.38;87.75;;;307.60;1612.80;;;;;;4928208;29;20050;-56
2022/02/04 16:06:25;;;;;;;102.53;69.15;;;307.50;1638.40;;;;;;4928640;29;20122;-57
2022/02/04 16:08:54;;;;;;;93.63;71.63;;;307.50;1612.80;;;;;;4928728;29;20130;-56
2022/02/04 16:14:12;;;;;;;129.68;104.72;;;307.40;1638.40;;;;;;4928546;29;20107;-56
2022/02/04 16:16:45;;;;;;;140.00;102.70;;;307.30;1612.80;;;;;;4929051;29;20024;-60
2022/02/04 16:19:27;;;;;;;145.25;107.35;;;307.30;1612.80;;;;;;4929029;29;20042;-60
2022/02/04 16:29:47;;;;;;;67.95;45.45;;;282.40;1638.40;;;;;;4929057;29;20438;-60
2022/02/04 16:32:13;;;;;;;115.20;73.38;;;282.30;1689.60;;;;;;4928061;29;20032;-60
2022/02/04 16:34:40;;;;;;;272.27;154.25;;;282.00;1715.20;;;;;;4925134;29;20505;-60
2022/02/04 16:37:16;;;;;;;337.48;177.05;;;281.70;1740.80;;;;;;4927560;29;20050;-61
2022/02/04 16:39:43;;;;;;;128.27;79.85;;;256.90;1740.80;;;;;;4928390;28;20030;-61
2022/02/04 16:42:15;;;;;;;135.35;81.88;;;256.90;1740.80;;;;;;4987946;28;20037;-60
2022/02/04 16:44:42;;;;;;;98.85;56.35;;;256.90;1740.80;;;;;;4985204;28;20038;-61
2022/02/04 16:47:08;;;;;;;117.60;70.50;;;256.70;1766.40;;;;;;4988481;28;20030;-60
2022/02/04 16:49:35;;;;;;;234.07;141.32;;;256.70;1766.40;;;;;;4987993;28;20515;-60
2022/02/04 16:52:01;;;;;;;443.50;246.43;;;256.50;1766.40;;;;;;4989017;28;20521;-60
2022/02/04 16:54:28;;;;;;;465.17;259.35;;;256.40;1792.00;;;;;;4991985;28;20026;-59
2022/02/04 16:56:54;;;;;;;563.75;325.75;;;256.40;1792.00;;;;;;4991406;28;20057;-60
2022/02/04 16:59:21;;;;;;;309.83;167.23;;;256.40;1817.60;;;;;;4990995;28;20035;-60
2022/02/04 17:01:47;;;;;;;131.65;84.63;;;256.30;1817.60;;;;;;4991574;28;20123;-59
2022/02/04 17:04:14;;;;;;;84.50;56.55;;;256.50;1792.00;;;;;;4991461;28;20026;-60
2022/02/04 17:06:45;;;;;;;256.50;126.60;;;256.60;1766.40;;;;;;4991181;28;20068;-60
2022/02/04 17:11:45;;;;;;;187.13;112.78;;;256.50;1766.40;;;;;;4991530;28;20024;-59
2022/02/04 17:14:12;;;;;;;107.50;65.72;;;256.30;1792.00;;;;;;4991239;28;20503;-59
2022/02/04 17:16:42;;;;;;;157.32;86.57;;;256.30;1817.60;;;;;;4996437;28;20491;-59
2022/02/04 17:19:13;;;;;;;115.60;72.57;;;256.20;1817.60;;;;;;5001683;28;20026;-60
2022/02/04 17:21:39;;;;;;;202.88;108.15;;;256.10;1817.60;;;;;;4991085;28;20097;-59
2022/02/04 17:24:11;;;;;;;586.47;334.45;;;256.20;1817.60;;;;;;4992294;28;20018;-59
2022/02/04 17:26:37;;;;;;;401.48;258.30;;;256.20;1817.60;;;;;;4992076;28;20034;-60
2022/02/04 17:29:03;;;;;;;258.85;159.40;;;256.00;1817.60;;;;;;4991990;28;20502;-60
2022/02/04 17:31:29;;;;;;;688.47;385.25;;;231.30;1843.20;;;;;;4992184;28;20149;-60
2022/02/04 17:33:54;;;;;;;286.70;157.50;;;256.10;1817.60;;;;;;4992161;28;20576;-61
2022/02/04 17:36:20;;;;;;;130.70;81.20;;;231.30;1817.60;;;;;;4992282;28;20534;-60
2022/02/04 17:38:46;;;;;;;120.13;75.70;;;231.20;1843.20;;;;;;4992082;28;20034;-60
2022/02/04 17:41:15;;;;;;;72.18;49.13;;;231.20;1843.20;;;;;;4992276;28;20022;-60
2022/02/04 17:43:43;;;;;;;64.78;43.58;;;231.20;1843.20;;;;;;4992040;28;20432;-60
2022/02/04 17:46:09;;;;;;;79.50;52.85;;;231.20;1843.20;;;;;;4991732;28;20530;-60
2022/02/04 17:48:44;;;;;;;123.80;85.95;;;231.10;1868.80;;;;;;4991457;28;20097;-60
2022/02/04 17:51:44;;;;;;;180.65;124.65;;;230.90;1894.40;;;;;;4992000;28;20751;-59
2022/02/04 17:54:14;;;;;;;371.02;253.90;;;230.80;1920.00;;;;;;4992113;28;20050;-60
2022/02/04 18:07:14;;;;;;;32.08;28.70;;;205.70;2022.40;;;;;;4991665;28;20033;-59
2022/02/04 18:09:45;;;;;;;22.25;16.60;;;205.70;2022.40;;;;;;4991293;28;20022;-59
2022/02/04 18:12:12;;;;;;;27.33;17.73;;;205.60;2073.60;;;;;;4991424;28;20062;-60
2022/02/04 18:14:38;;;;;;;33.00;24.77;;;205.70;2048.00;;;;;;4991534;28;20019;-59
2022/02/04 18:17:05;;;;;;;16.60;10.27;;;205.60;2073.60;;;;;;4991253;28;20104;-59
2022/02/04 18:19:32;;;;;;;18.83;11.50;;;205.60;2099.20;;;;;;4991464;28;20030;-59
2022/02/04 18:21:58;;;;;;;14.32;8.90;;;205.50;2150.40;;;;;;4974122;28;20038;-60
2022/02/04 18:24:23;;;;;;;13.45;9.55;;;205.20;2201.60;;;;;;4990961;28;20030;-59
2022/02/04 18:26:49;;;;;;;25.23;14.77;;;205.20;2227.20;;;;;;4991199;28;20527;-59
2022/02/04 18:29:15;;;;;;;35.60;27.10;;;205.10;2252.80;;;;;;4990710;28;20037;-60
2022/02/04 18:31:41;;;;;;;49.33;35.63;;;205.10;2252.80;;;;;;4991013;28;20026;-60
2022/02/04 18:34:10;;;;;;;32.17;23.25;;;205.30;2252.80;;;;;;4991270;28;20173;-59
2022/02/04 18:36:35;;;;;;;22.25;14.70;;;205.30;2252.80;;;;;;4990971;28;20025;-59
2022/02/04 18:44:28;;;;;;;19.38;12.38;;;205.40;2252.80;;;;;;4971298;28;20077;-60
2022/02/04 18:49:48;;;;;;;33.83;21.77;;;205.20;2252.80;;;;;;4971436;28;20089;-60
2022/02/04 18:57:36;;;;;;;36.53;24.15;;;204.90;2252.80;;;;;;4990533;28;20057;-60
2022/02/04 19:00:12;;;;;;;27.90;18.10;;;205.00;2252.80;;;;;;4990685;28;20034;-60